Flight Track Log - Related Links

Times and Time Zones

All times are in EDT time to prevent confusion due to time zone crossing. See the JEX1789 flight status page for this flight to view local times or setup timezone preferences in your user account.

Time Position Orientation Groundspeed Altitude Reporting Facility
EDT Latitude Longitude Course Direction KTS MPH feet Rate Location/Type
Fri 01:51:00 AM 35.4745 139.4270 255° West  Level Estimated
Fri 01:52:00 AM 35.4483 139.3096 255° West  Level Estimated
Fri 01:53:00 AM 35.4220 139.1923 255° West  Level Estimated
Fri 01:54:00 AM 35.3956 139.0750 255° West  Level Estimated
Fri 01:55:00 AM 35.3691 138.9579 255° West  Level Estimated
Fri 01:56:00 AM 35.3425 138.8408 254° West  Level Estimated
Fri 01:57:00 AM 35.3158 138.7238 254° West  Level Estimated
Fri 01:58:00 AM 35.2890 138.6068 254° West  Level Estimated
Fri 01:59:00 AM 35.2620 138.4900 254° West  Level Estimated
Fri 02:00:00 AM 35.2350 138.3732 254° West  Level Estimated
Fri 02:01:00 AM 35.2078 138.2565 254° West  Level Estimated
Fri 02:02:00 AM 35.1805 138.1398 254° West  Level Estimated
Fri 02:03:00 AM 35.1527 138.0216 254° West  Level Estimated
Fri 02:04:00 AM 35.1248 137.9034 254° West  Level Estimated
Fri 02:05:00 AM 35.0968 137.7854 254° West  Level Estimated
Fri 02:06:00 AM 35.0686 137.6673 254° West  Level Estimated
Fri 02:07:00 AM 35.0404 137.5494 254° West  Level Estimated
Fri 02:08:00 AM 35.0120 137.4316 254° West  Level Estimated
Fri 02:09:00 AM 34.9835 137.3139 254° West  Level Estimated
Fri 02:10:00 AM 34.9549 137.1962 254° West  Level Estimated
Fri 02:11:00 AM 34.9262 137.0786 253° West  Level Estimated
Fri 02:12:00 AM 34.8974 136.9611 253° West  Level Estimated
Fri 02:13:00 AM 34.8685 136.8437 253° West  Level Estimated
Fri 02:14:00 AM 34.8394 136.7263 253° West  Level Estimated
Fri 02:15:00 AM 34.8103 136.6091 253° West  Level Estimated
Fri 02:16:00 AM 34.7806 136.4902 253° West  Level Estimated
Fri 02:17:00 AM 34.7507 136.3714 253° West  Level Estimated
Fri 02:18:00 AM 34.7208 136.2527 253° West  Level Estimated
Fri 02:19:00 AM 34.6908 136.1340 253° West  Level Estimated
Fri 02:20:00 AM 34.6606 136.0155 253° West  Level Estimated
Fri 02:21:00 AM 34.6303 135.8970 253° West  Level Estimated
Fri 02:22:00 AM 34.5999 135.7786 253° West  Level Estimated
Fri 02:23:00 AM 34.5694 135.6603 253° West  Level Estimated
Fri 02:24:00 AM 34.5388 135.5421 253° West  Level Estimated
Fri 02:25:00 AM 34.5081 135.4240 253° West  Level Estimated
Fri 02:26:00 AM 34.4772 135.3060 252° West  Level Estimated
Fri 02:27:00 AM 34.4463 135.1880 252° West  Level Estimated
Fri 02:28:00 AM 34.4152 135.0702 252° West  Level Estimated
Fri 02:29:00 AM 34.3840 134.9524 252° West  Level Estimated
Fri 02:30:00 AM 34.3527 134.8347 252° West  Level Estimated
Fri 02:31:00 AM 34.3213 134.7172 252° West  Level Estimated
Fri 02:32:00 AM 34.2888 134.5961 252° West  Level Estimated
Fri 02:33:00 AM 34.2562 134.4751 252° West  Level Estimated
Fri 02:34:00 AM 34.2235 134.3543 252° West  Level Estimated
Fri 02:35:00 AM 34.1906 134.2335 252° West  Level Estimated
Fri 02:36:00 AM 34.1577 134.1128 252° West  Level Estimated
Fri 02:37:00 AM 34.1246 133.9922 252° West  Level Estimated
Fri 02:38:00 AM 34.0914 133.8717 252° West  Level Estimated
Fri 02:39:00 AM 34.0581 133.7513 252° West  Level Estimated
Fri 02:40:00 AM 34.0247 133.6310 251° West  Level Estimated
Fri 02:41:00 AM 33.9911 133.5108 251° West  Level Estimated
Fri 02:42:00 AM 33.9575 133.3907 251° West  Level Estimated
Fri 02:43:00 AM 33.9237 133.2706 251° West  Level Estimated
Fri 02:44:00 AM 33.8898 133.1507 251° West  Level Estimated
Fri 02:45:00 AM 33.8558 133.0309 251° West  Level Estimated
Fri 02:46:00 AM 33.8216 132.9111 251° West  Level Estimated
Fri 02:47:00 AM 33.7874 132.7915 251° West  Level Estimated
Fri 02:48:00 AM 33.7530 132.6720 251° West  Level Estimated
Fri 02:49:00 AM 33.7186 132.5525 251° West  Level Estimated
Fri 02:50:00 AM 33.6840 132.4332 251° West  Level Estimated
Fri 02:51:00 AM 33.6493 132.3139 251° West  Level Estimated
Fri 02:52:00 AM 33.6155 132.1982 251° West  Level Estimated
Fri 02:53:00 AM 33.5816 132.0827 251° West  Level Estimated
Fri 02:54:00 AM 33.5476 131.9672 251° West  Level Estimated
Fri 02:55:00 AM 33.5135 131.8518 251° West  Level Estimated
Fri 02:56:00 AM 33.4794 131.7372 250° West  Level Estimated
Fri 02:57:00 AM 33.4794 131.7372 23° Northeast  Level Estimated
Fri 02:58:00 AM 33.4794 131.7372 23° Northeast  Level Estimated
Fri 02:59:00 AM 33.4794 131.7372 23° Northeast  Level Estimated
Fri 03:00:00 AM 33.4794 131.7372 23° Northeast  Level Estimated
Fri 03:01:00 AM 33.4794 131.7372 23° Northeast  Level Estimated
Fri 03:02:00 AM 33.4794 131.7372 23° Northeast  Level Estimated
Fri 03:03:00 AM 33.4794 131.7372 23° Northeast  Level Estimated

Login

Don't have an account? Register now (free) for customized features, flight alerts, and more!